createdAt,value
2022-09-03T00:00:16.549Z,6.40
2022-09-03T00:02:47.635Z,6.45
2022-09-03T00:05:21.666Z,7.50
2022-09-03T00:07:57.948Z,7.00
2022-09-03T00:10:31.528Z,6.10
2022-09-03T00:13:04.176Z,6.00
2022-09-03T00:15:33.864Z,4.80
2022-09-03T00:20:34.591Z,4.78
2022-09-03T00:23:07.664Z,4.15
2022-09-03T00:25:38.627Z,4.57
2022-09-03T00:28:12.947Z,5.63
2022-09-03T00:30:42.581Z,5.65
2022-09-03T00:33:13.342Z,5.80
2022-09-03T00:35:47.737Z,5.95
2022-09-03T00:38:16.399Z,6.38
2022-09-03T00:41:01.933Z,5.03
2022-09-03T00:43:46.326Z,5.60
2022-09-03T00:46:20.271Z,5.53
2022-09-03T00:49:00.017Z,4.75
2022-09-03T00:54:06.377Z,5.15
2022-09-03T00:56:44.786Z,4.57
2022-09-03T00:59:24.818Z,3.80
2022-09-03T01:02:04.525Z,4.50
2022-09-03T01:04:44.138Z,3.53
2022-09-03T01:07:19.789Z,4.05
2022-09-03T01:09:54.872Z,3.25
2022-09-03T01:12:38.530Z,3.70
2022-09-03T01:15:12.984Z,3.72
2022-09-03T01:17:55.359Z,3.22
2022-09-03T01:20:51.803Z,3.10
2022-09-03T01:23:44.598Z,2.88
2022-09-03T01:26:43.968Z,2.88
2022-09-03T01:29:21.959Z,3.65
2022-09-03T01:32:01.367Z,3.35
2022-09-03T01:34:42.295Z,2.67
2022-09-03T01:37:19.913Z,2.85
2022-09-03T01:39:58.719Z,2.70
2022-09-03T01:42:33.807Z,2.93
2022-09-03T01:45:35.556Z,2.92
2022-09-03T01:48:14.816Z,3.13
2022-09-03T01:50:48.513Z,3.33
2022-09-03T01:53:32.707Z,3.03
2022-09-03T01:56:18.012Z,2.95
2022-09-03T01:58:49.656Z,2.83
2022-09-03T02:01:28.201Z,2.60
2022-09-03T02:04:00.242Z,3.00
2022-09-03T02:06:34.162Z,2.50
2022-09-03T02:09:01.586Z,2.78
2022-09-03T02:11:29.094Z,2.75
2022-09-03T02:14:00.044Z,2.40
2022-09-03T02:16:34.623Z,3.00
2022-09-03T02:19:05.835Z,2.88
2022-09-03T02:21:35.665Z,2.95
2022-09-03T02:26:31.370Z,2.22
2022-09-03T02:28:59.365Z,2.67
2022-09-03T02:31:28.749Z,2.33
2022-09-03T02:33:58.387Z,2.55
2022-09-03T02:36:29.949Z,2.60
2022-09-03T02:38:57.899Z,2.65
2022-09-03T02:41:27.533Z,2.17
2022-09-03T02:44:02.619Z,2.00
2022-09-03T02:46:34.974Z,3.13
2022-09-03T02:49:04.138Z,2.45
2022-09-03T02:51:36.193Z,2.20
2022-09-03T02:54:03.781Z,2.47
2022-09-03T02:56:31.231Z,2.00
2022-09-03T02:58:58.691Z,1.98
2022-09-03T03:01:26.418Z,2.83
2022-09-03T03:03:54.678Z,2.40
2022-09-03T03:06:23.625Z,3.58
2022-09-03T03:08:51.471Z,2.22
2022-09-03T03:11:20.046Z,2.17
2022-09-03T03:13:47.565Z,2.00
2022-09-03T03:16:17.206Z,2.53
2022-09-03T03:18:48.149Z,2.95
2022-09-03T03:21:17.604Z,2.58
2022-09-03T03:23:46.562Z,2.72
2022-09-03T03:26:18.647Z,2.30
2022-09-03T03:28:47.033Z,2.85
2022-09-03T03:31:16.612Z,2.28
2022-09-03T03:36:14.677Z,2.20
2022-09-03T03:38:42.812Z,1.85
2022-09-03T03:41:13.991Z,2.80
2022-09-03T03:43:41.371Z,2.38
2022-09-03T03:46:09.074Z,3.30
2022-09-03T03:48:37.027Z,3.55
2022-09-03T03:51:06.982Z,3.55
2022-09-03T03:53:36.002Z,3.42
2022-09-03T03:56:06.281Z,3.20
2022-09-03T03:58:35.431Z,3.05
2022-09-03T04:01:06.979Z,3.75
2022-09-03T04:03:34.492Z,2.63
2022-09-03T04:06:02.841Z,2.75
2022-09-03T04:08:30.493Z,4.00
2022-09-03T04:11:01.083Z,3.40
2022-09-03T04:13:29.606Z,3.65
2022-09-03T04:16:03.379Z,3.63
2022-09-03T04:18:31.842Z,4.43
2022-09-03T04:21:04.451Z,3.22
2022-09-03T04:23:32.877Z,2.83
2022-09-03T04:26:00.778Z,2.50
2022-09-03T04:28:28.319Z,2.58
2022-09-03T04:31:00.699Z,2.30
2022-09-03T04:33:29.685Z,2.30
2022-09-03T04:36:06.064Z,1.95
2022-09-03T04:38:34.873Z,2.20
2022-09-03T04:41:02.761Z,2.10
2022-09-03T04:43:30.459Z,2.25
2022-09-03T04:45:59.214Z,2.03
2022-09-03T04:48:27.374Z,2.10
2022-09-03T04:51:06.014Z,2.25
2022-09-03T04:53:35.041Z,2.30
2022-09-03T04:56:03.042Z,2.40
2022-09-03T04:58:30.503Z,3.08
2022-09-03T05:00:58.361Z,2.13
2022-09-03T05:03:25.887Z,2.45
2022-09-03T05:05:56.086Z,2.45
2022-09-03T05:08:24.422Z,2.20
2022-09-03T05:10:58.523Z,1.90
2022-09-03T05:13:26.042Z,2.20
2022-09-03T05:15:54.141Z,2.35
2022-09-03T05:18:21.466Z,2.10
2022-09-03T05:20:48.769Z,2.10
2022-09-03T05:23:17.772Z,2.78
2022-09-03T05:25:57.511Z,2.80
2022-09-03T05:30:59.045Z,3.78
2022-09-03T05:33:26.431Z,5.18
2022-09-03T05:35:53.878Z,4.32
2022-09-03T05:38:22.507Z,4.30
2022-09-03T05:40:49.768Z,3.45
2022-09-03T05:43:17.385Z,3.10
2022-09-03T05:45:44.752Z,2.92
2022-09-03T05:48:12.190Z,2.50
2022-09-03T05:50:40.223Z,2.67
2022-09-03T05:53:07.434Z,2.33
2022-09-03T05:55:36.402Z,2.80
2022-09-03T05:58:03.715Z,2.20
2022-09-03T06:00:30.971Z,2.30
2022-09-03T06:03:00.304Z,2.17
2022-09-03T06:05:27.644Z,2.67
2022-09-03T06:07:55.163Z,2.72
2022-09-03T06:10:26.280Z,2.30
2022-09-03T06:13:04.063Z,6.13
2022-09-03T06:15:31.907Z,1.95
2022-09-03T06:17:59.210Z,2.00
2022-09-03T06:20:29.970Z,1.75
2022-09-03T06:22:58.837Z,1.83
2022-09-03T06:25:26.445Z,1.15
2022-09-03T06:27:53.750Z,2.38
2022-09-03T06:30:24.180Z,2.22
2022-09-03T06:32:52.625Z,2.38
2022-09-03T06:35:20.075Z,2.50
2022-09-03T06:37:47.486Z,2.60
2022-09-03T06:40:22.626Z,2.38
2022-09-03T06:42:59.426Z,2.85
2022-09-03T06:45:29.351Z,2.50
2022-09-03T06:47:56.696Z,2.03
2022-09-03T06:50:24.321Z,2.35
2022-09-03T06:52:54.750Z,2.05
2022-09-03T06:55:23.026Z,2.28
2022-09-03T06:57:53.285Z,1.88
2022-09-03T07:00:21.882Z,1.80
2022-09-03T07:02:58.612Z,1.70
2022-09-03T07:05:28.834Z,1.70
2022-09-03T07:07:56.480Z,1.83
2022-09-03T07:10:23.788Z,1.60
2022-09-03T07:12:51.126Z,1.45
2022-09-03T07:15:18.435Z,1.50
2022-09-03T07:17:45.691Z,1.50
2022-09-03T07:20:14.542Z,1.20
2022-09-03T07:22:41.839Z,1.10
2022-09-03T07:25:09.975Z,1.38
2022-09-03T07:27:38.636Z,1.80
2022-09-03T07:30:10.619Z,1.55
2022-09-03T07:32:41.146Z,1.52
2022-09-03T07:35:08.990Z,1.33
2022-09-03T07:37:38.617Z,1.55
2022-09-03T07:40:07.020Z,1.45
2022-09-03T07:42:36.253Z,1.30
2022-09-03T07:45:05.802Z,1.25
2022-09-03T07:47:34.698Z,1.40
2022-09-03T07:50:02.353Z,1.23
2022-09-03T07:52:30.877Z,1.58
2022-09-03T07:54:59.634Z,1.23
2022-09-03T07:57:26.937Z,1.08
2022-09-03T07:59:54.344Z,1.35
2022-09-03T08:02:21.886Z,1.63
2022-09-03T08:04:49.130Z,1.52
2022-09-03T08:07:16.361Z,1.73
2022-09-03T08:09:44.031Z,1.60
2022-09-03T08:12:12.723Z,1.02
2022-09-03T08:14:40.089Z,1.50
2022-09-03T08:17:08.162Z,1.80
2022-09-03T08:19:35.609Z,1.88
2022-09-03T08:22:02.816Z,2.05
2022-09-03T08:24:31.447Z,1.67
2022-09-03T08:26:58.798Z,2.10
2022-09-03T08:29:27.723Z,1.92
2022-09-03T08:31:54.995Z,1.23
2022-09-03T08:34:22.411Z,1.27
2022-09-03T08:36:50.477Z,1.58
2022-09-03T08:39:18.126Z,2.28
2022-09-03T08:42:10.588Z,2.65
2022-09-03T08:44:47.071Z,2.25
2022-09-03T08:47:18.908Z,2.58
2022-09-03T08:49:52.294Z,1.48
2022-09-03T08:52:31.070Z,2.03
2022-09-03T08:55:09.284Z,1.30
2022-09-03T08:57:44.262Z,1.45
2022-09-03T09:00:13.996Z,1.80
2022-09-03T09:05:19.464Z,3.17
2022-09-03T09:07:54.927Z,1.38
2022-09-03T09:10:29.206Z,1.33
2022-09-03T09:13:08.403Z,1.40
2022-09-03T09:15:43.487Z,1.55
2022-09-03T09:18:22.866Z,1.20
2022-09-03T09:20:53.239Z,1.20
2022-09-03T09:23:27.318Z,1.13
2022-09-03T09:25:57.848Z,1.20
2022-09-03T09:28:30.231Z,1.60
2022-09-03T09:31:01.994Z,1.52
2022-09-03T09:33:32.280Z,1.80
2022-09-03T09:36:04.447Z,2.22
2022-09-03T09:38:33.514Z,2.10
2022-09-03T09:41:10.086Z,2.17
2022-09-03T09:43:38.487Z,1.45
2022-09-03T09:46:14.745Z,1.45
2022-09-03T09:48:50.400Z,1.50
2022-09-03T09:51:22.873Z,1.77
2022-09-03T09:54:01.764Z,1.70
2022-09-03T09:56:29.564Z,1.50
2022-09-03T09:59:04.553Z,2.25
2022-09-03T10:01:36.660Z,1.50
2022-09-03T10:04:11.174Z,1.73
2022-09-03T10:06:54.435Z,1.40
2022-09-03T10:09:26.706Z,1.48
2022-09-03T10:12:14.709Z,1.40
2022-09-03T10:14:46.243Z,1.60
2022-09-03T10:17:21.838Z,1.25
2022-09-03T10:20:24.576Z,1.80
2022-09-03T10:22:57.662Z,2.00
2022-09-03T10:25:28.630Z,2.20
2022-09-03T10:27:59.782Z,2.55
2022-09-03T10:30:27.202Z,3.72
2022-09-03T10:33:05.635Z,3.85
2022-09-03T10:35:38.040Z,1.90
2022-09-03T10:38:10.934Z,1.73
2022-09-03T10:40:42.807Z,1.92
2022-09-03T10:43:32.725Z,2.08
2022-09-03T10:46:06.425Z,1.92
2022-09-03T10:48:58.865Z,2.17
2022-09-03T10:51:30.093Z,2.10
2022-09-03T10:54:11.971Z,3.15
2022-09-03T10:56:51.105Z,2.08
2022-09-03T10:59:35.989Z,2.40
2022-09-03T11:02:24.528Z,1.58
2022-09-03T11:04:58.873Z,1.58
2022-09-03T11:07:34.937Z,1.50
2022-09-03T11:10:12.651Z,2.03
2022-09-03T11:12:45.104Z,1.75
2022-09-03T11:15:23.408Z,1.40
2022-09-03T11:17:58.424Z,1.20
2022-09-03T11:20:27.714Z,1.33
2022-09-03T11:22:58.388Z,1.55
2022-09-03T11:25:32.052Z,1.00
2022-09-03T11:28:11.822Z,1.30
2022-09-03T11:33:22.116Z,1.70
2022-09-03T11:35:57.397Z,2.55
2022-09-03T11:38:29.167Z,2.40
2022-09-03T11:41:00.843Z,2.50
2022-09-03T11:43:30.173Z,1.98
2022-09-03T11:46:06.727Z,4.40
2022-09-03T11:48:39.419Z,2.88
2022-09-03T11:51:21.314Z,1.65
2022-09-03T11:53:55.900Z,2.78
2022-09-03T11:56:23.870Z,1.83
2022-09-03T11:59:04.061Z,2.38
2022-09-03T12:01:32.705Z,2.78
2022-09-03T12:04:03.538Z,1.77
2022-09-03T12:06:45.706Z,1.48
2022-09-03T12:09:37.461Z,1.38
2022-09-03T12:12:18.630Z,1.50
2022-09-03T12:14:57.335Z,1.50
2022-09-03T12:17:30.972Z,1.50
2022-09-03T12:19:59.467Z,1.52
2022-09-03T12:22:30.143Z,1.77
2022-09-03T12:25:09.267Z,2.50
2022-09-03T12:27:49.683Z,1.35
2022-09-03T12:30:19.757Z,1.30
2022-09-03T12:32:47.658Z,1.90
2022-09-03T12:38:09.337Z,1.50
2022-09-03T12:43:39.157Z,1.67
2022-09-03T12:46:14.478Z,1.60
2022-09-03T12:49:29.979Z,2.08
2022-09-03T12:51:53.205Z,1.48
2022-09-03T12:54:26.070Z,1.33
2022-09-03T13:01:53.572Z,1.80
2022-09-03T13:04:26.933Z,2.45
2022-09-03T13:07:01.131Z,3.38
2022-09-03T13:09:33.312Z,4.55
2022-09-03T13:12:04.896Z,3.10
2022-09-03T13:14:43.917Z,3.05
2022-09-03T13:17:38.314Z,3.20
2022-09-03T13:20:25.580Z,2.10
2022-09-03T13:23:05.714Z,1.75
2022-09-03T13:25:42.580Z,1.80
2022-09-03T13:28:27.785Z,1.58
2022-09-03T13:31:00.359Z,1.35
2022-09-03T13:33:35.124Z,1.55
2022-09-03T13:36:09.164Z,1.30
2022-09-03T13:38:43.100Z,1.30
2022-09-03T13:41:19.788Z,0.82
2022-09-03T13:43:53.943Z,0.80
2022-09-03T13:46:28.095Z,0.73
2022-09-03T13:49:21.141Z,0.82
2022-09-03T13:51:56.950Z,0.73
2022-09-03T13:54:48.107Z,0.80
2022-09-03T13:57:29.683Z,0.70
2022-09-03T14:00:00.467Z,0.80
2022-09-03T14:02:49.447Z,0.50
2022-09-03T14:05:32.461Z,0.90
2022-09-03T14:08:09.442Z,0.70
2022-09-03T14:10:55.348Z,0.80
2022-09-03T14:13:32.125Z,0.90
2022-09-03T14:16:07.656Z,0.90
2022-09-03T14:18:48.387Z,0.75
2022-09-03T14:21:24.967Z,0.68
2022-09-03T14:24:00.505Z,0.60
2022-09-03T14:26:39.048Z,0.63
2022-09-03T14:29:17.077Z,0.95
2022-09-03T14:32:27.743Z,1.55
2022-09-03T14:35:19.914Z,0.55
2022-09-03T14:38:25.244Z,0.75
2022-09-03T14:41:05.829Z,1.10
2022-09-03T14:43:56.417Z,2.22
2022-09-03T14:46:42.525Z,1.10
2022-09-03T14:49:22.519Z,1.10
2022-09-03T14:52:08.050Z,0.93
2022-09-03T14:55:04.686Z,0.70
2022-09-03T14:57:48.373Z,0.88
2022-09-03T15:00:19.727Z,1.00
2022-09-03T15:03:09.521Z,1.35
2022-09-03T15:05:51.864Z,1.20
2022-09-03T15:08:38.514Z,0.95
2022-09-03T15:11:15.850Z,0.98
2022-09-03T15:13:48.707Z,1.00
2022-09-03T15:16:36.792Z,1.20
2022-09-03T15:19:34.761Z,0.80
2022-09-03T15:22:12.526Z,1.20
2022-09-03T15:24:53.690Z,1.10
2022-09-03T15:27:41.823Z,1.08
2022-09-03T15:30:11.254Z,0.75
2022-09-03T15:32:49.607Z,1.05
2022-09-03T15:35:33.679Z,1.50
2022-09-03T15:38:04.409Z,1.50
2022-09-03T15:40:34.646Z,1.30
2022-09-03T15:43:09.140Z,1.42
2022-09-03T15:45:40.822Z,1.50
2022-09-03T15:48:22.002Z,1.15
2022-09-03T15:50:59.130Z,1.25
2022-09-03T15:53:34.277Z,0.98
2022-09-03T15:56:13.538Z,0.93
2022-09-03T16:01:21.709Z,0.80
2022-09-03T16:04:01.410Z,1.40
2022-09-03T16:06:38.454Z,0.73
2022-09-03T16:09:18.626Z,1.00
2022-09-03T16:11:56.112Z,0.60
2022-09-03T16:14:30.998Z,2.03
2022-09-03T16:17:05.440Z,1.30
2022-09-03T16:19:42.144Z,1.02
2022-09-03T16:22:22.223Z,1.15
2022-09-03T16:24:54.443Z,1.20
2022-09-03T16:27:25.050Z,0.80
2022-09-03T16:29:59.785Z,1.23
2022-09-03T16:32:49.869Z,1.20
2022-09-03T16:35:27.863Z,0.82
2022-09-03T16:38:09.298Z,1.38
2022-09-03T16:40:43.098Z,0.63
2022-09-03T16:43:40.139Z,0.82
2022-09-03T16:46:24.401Z,0.70
2022-09-03T16:49:04.816Z,0.77
2022-09-03T16:51:39.734Z,0.98
2022-09-03T16:54:20.649Z,0.75
2022-09-03T16:56:59.861Z,0.68
2022-09-03T16:59:51.131Z,1.47
2022-09-03T17:02:42.257Z,3.42
2022-09-03T17:05:46.271Z,3.20
2022-09-03T17:08:24.868Z,4.53
2022-09-03T17:11:07.294Z,3.50
2022-09-03T17:14:12.962Z,3.88
2022-09-03T17:16:52.519Z,3.47
2022-09-03T17:19:30.099Z,4.38
2022-09-03T17:22:10.209Z,5.97
2022-09-03T17:24:45.213Z,2.90
2022-09-03T17:27:31.712Z,5.07
2022-09-03T17:30:09.789Z,3.60
2022-09-03T17:33:04.338Z,2.63
2022-09-03T17:35:41.932Z,2.42
2022-09-03T17:38:24.368Z,2.15
2022-09-03T17:41:03.599Z,2.92
2022-09-03T17:43:46.090Z,3.00
2022-09-03T17:46:26.344Z,2.85
2022-09-03T17:48:55.236Z,2.20
2022-09-03T17:51:42.995Z,1.95
2022-09-03T17:54:17.945Z,2.03
2022-09-03T17:57:05.301Z,2.05
2022-09-03T17:59:44.307Z,2.33
2022-09-03T18:02:24.159Z,2.83
2022-09-03T18:04:56.450Z,2.35
2022-09-03T18:07:29.669Z,2.20
2022-09-03T18:10:06.827Z,2.47
2022-09-03T18:12:43.508Z,3.20
2022-09-03T18:15:28.255Z,3.17
2022-09-03T18:18:04.508Z,2.75
2022-09-03T18:21:21.453Z,7.35
2022-09-03T18:24:13.414Z,3.30
2022-09-03T18:27:04.696Z,3.05
2022-09-03T18:29:54.542Z,3.63
2022-09-03T18:32:41.784Z,3.35
2022-09-03T18:35:28.388Z,2.42
2022-09-03T18:38:14.401Z,15.88
2022-09-03T18:41:08.060Z,4.65
2022-09-03T18:44:06.787Z,2.90
2022-09-03T18:48:02.376Z,3.08
2022-09-03T18:50:20.913Z,2.97
2022-09-03T18:53:21.103Z,3.40
2022-09-03T18:56:21.814Z,3.25
2022-09-03T18:59:26.133Z,13.80
2022-09-03T19:02:12.928Z,7.05
2022-09-03T19:05:13.215Z,5.97
2022-09-03T19:08:10.063Z,6.80
2022-09-03T19:11:05.093Z,4.18
2022-09-03T19:13:55.501Z,3.53
2022-09-03T19:16:57.639Z,5.05
2022-09-03T19:20:09.062Z,5.03
2022-09-03T19:22:56.640Z,4.72
2022-09-03T19:25:46.020Z,5.47
2022-09-03T19:28:34.801Z,5.13
2022-09-03T19:31:48.152Z,5.17
2022-09-03T19:34:51.932Z,5.32
2022-09-03T19:37:42.257Z,5.22
2022-09-03T19:40:51.141Z,5.78
2022-09-03T19:43:47.932Z,4.85
2022-09-03T19:46:41.589Z,5.40
2022-09-03T19:49:38.219Z,5.75
2022-09-03T19:52:32.478Z,5.13
2022-09-03T19:55:20.944Z,4.65
2022-09-03T19:58:39.241Z,4.78
2022-09-03T20:01:21.430Z,4.78
2022-09-03T20:04:07.750Z,4.55
2022-09-03T20:06:54.926Z,4.30
2022-09-03T20:09:47.498Z,4.60
2022-09-03T20:12:17.468Z,3.47
2022-09-03T20:14:46.068Z,4.05
2022-09-03T20:17:26.511Z,3.15
2022-09-03T20:20:13.690Z,3.63
2022-09-03T20:22:51.085Z,3.58
2022-09-03T20:25:43.309Z,3.08
2022-09-03T20:28:26.066Z,3.63
2022-09-03T20:31:01.798Z,3.33
2022-09-03T20:33:47.252Z,2.38
2022-09-03T20:36:27.276Z,4.85
2022-09-03T20:39:24.129Z,4.55
2022-09-03T20:42:00.787Z,7.78
2022-09-03T20:44:53.572Z,10.80
2022-09-03T20:47:41.308Z,9.48
2022-09-03T20:50:21.280Z,9.95
2022-09-03T20:53:02.091Z,6.97
2022-09-03T20:55:36.712Z,4.68
2022-09-03T20:58:14.806Z,4.15
2022-09-03T21:00:50.264Z,3.47
2022-09-03T21:03:25.749Z,3.50
2022-09-03T21:06:09.805Z,2.92
2022-09-03T21:09:01.207Z,2.95
2022-09-03T21:11:38.133Z,3.42
2022-09-03T21:14:19.847Z,4.18
2022-09-03T21:17:00.600Z,3.35
2022-09-03T21:19:45.202Z,3.20
2022-09-03T21:22:25.409Z,3.63
2022-09-03T21:24:58.581Z,3.15
2022-09-03T21:27:33.373Z,3.20
2022-09-03T21:30:03.074Z,3.60
2022-09-03T21:32:40.060Z,3.78
2022-09-03T21:35:16.210Z,4.25
2022-09-03T21:37:52.503Z,4.45
2022-09-03T21:40:21.665Z,4.38
2022-09-03T21:42:59.909Z,4.40
2022-09-03T21:45:34.590Z,4.07
2022-09-03T21:48:07.943Z,3.08
2022-09-03T21:50:49.513Z,4.05
2022-09-03T21:53:25.162Z,3.33
2022-09-03T21:56:09.030Z,2.40
2022-09-03T21:58:52.820Z,3.08
2022-09-03T22:01:27.348Z,2.70
2022-09-03T22:03:56.253Z,3.33
2022-09-03T22:06:28.944Z,3.03
2022-09-03T22:09:03.193Z,2.42
2022-09-03T22:11:35.827Z,2.00
2022-09-03T22:14:09.873Z,2.33
2022-09-03T22:16:43.835Z,2.78
2022-09-03T22:19:11.154Z,2.80
2022-09-03T22:21:59.278Z,2.65
2022-09-03T22:24:39.465Z,2.95
2022-09-03T22:29:46.810Z,2.65
2022-09-03T22:32:29.186Z,2.10
2022-09-03T22:35:13.661Z,2.50
2022-09-03T22:37:58.851Z,2.70
2022-09-03T22:40:33.464Z,2.22
2022-09-03T22:43:27.168Z,2.28
2022-09-03T22:46:04.983Z,2.28
2022-09-03T22:48:50.140Z,2.35
2022-09-03T22:51:21.745Z,2.38
2022-09-03T22:54:09.455Z,2.67
2022-09-03T22:56:40.916Z,2.67
2022-09-03T22:59:13.373Z,2.28
2022-09-03T23:01:45.287Z,2.85
2022-09-03T23:04:19.108Z,4.75
2022-09-03T23:06:53.492Z,6.80
2022-09-03T23:09:27.594Z,7.70
2022-09-03T23:11:59.781Z,7.95
2022-09-03T23:14:34.362Z,8.77
2022-09-03T23:17:08.175Z,8.30
2022-09-03T23:19:42.183Z,10.15
2022-09-03T23:22:13.407Z,11.27
2022-09-03T23:24:47.899Z,10.60
2022-09-03T23:27:20.214Z,11.43
2022-09-03T23:29:51.510Z,11.93
2022-09-03T23:32:18.942Z,11.18
2022-09-03T23:34:46.353Z,10.68
2022-09-03T23:37:47.962Z,8.80
2022-09-03T23:40:28.110Z,6.50
2022-09-03T23:43:31.387Z,8.18
2022-09-03T23:46:05.380Z,6.75
2022-09-03T23:48:46.186Z,6.10
2022-09-03T23:51:28.270Z,4.45
2022-09-03T23:54:06.651Z,4.32
2022-09-03T23:56:54.424Z,5.43
2022-09-03T23:59:29.929Z,4.30
